createdAt,value
2016-06-29T00:00:35.684Z,0
2016-06-29T00:01:35.643Z,0
2016-06-29T00:02:36.910Z,0
2016-06-29T00:03:36.243Z,0
2016-06-29T00:04:36.223Z,0
2016-06-29T00:05:35.604Z,0
2016-06-29T00:06:35.643Z,0
2016-06-29T00:07:36.202Z,0
2016-06-29T00:08:35.148Z,0
2016-06-29T00:09:36.171Z,0
2016-06-29T00:10:35.545Z,0
2016-06-29T00:11:34.931Z,0
2016-06-29T00:12:34.300Z,0
2016-06-29T00:13:35.522Z,0
2016-06-29T00:14:35.518Z,0
2016-06-29T00:15:34.884Z,0
2016-06-29T00:16:36.082Z,0
2016-06-29T00:17:36.079Z,0
2016-06-29T00:18:36.075Z,0
2016-06-29T00:19:36.070Z,0
2016-06-29T00:20:35.467Z,0
2016-06-29T00:21:35.489Z,0
2016-06-29T00:22:34.181Z,0
2016-06-29T00:23:34.786Z,0
2016-06-29T00:24:35.375Z,0
2016-06-29T00:25:35.365Z,0
2016-06-29T00:26:35.379Z,0
2016-06-29T00:27:34.733Z,0
2016-06-29T00:28:34.735Z,0
2016-06-29T00:29:35.318Z,0
2016-06-29T00:30:35.290Z,0
2016-06-29T00:31:35.294Z,0
2016-06-29T00:32:34.724Z,0
2016-06-29T00:33:36.611Z,0
2016-06-29T00:34:34.681Z,0
2016-06-29T00:35:35.842Z,0
2016-06-29T00:36:35.245Z,0
2016-06-29T00:37:35.229Z,0
2016-06-29T00:38:34.594Z,0
2016-06-29T00:39:33.997Z,0
2016-06-29T00:40:35.193Z,0
2016-06-29T00:41:35.808Z,0
2016-06-29T00:42:35.182Z,0
2016-06-29T00:43:36.394Z,0
2016-06-29T00:44:35.747Z,0
2016-06-29T00:45:35.183Z,0
2016-06-29T00:46:35.127Z,0
2016-06-29T00:47:34.501Z,0
2016-06-29T00:48:34.499Z,0
2016-06-29T00:49:35.687Z,0
2016-06-29T00:50:35.719Z,0
2016-06-29T00:51:34.453Z,0
2016-06-29T00:52:34.422Z,0
2016-06-29T00:53:35.661Z,0
2016-06-29T00:54:35.079Z,0
2016-06-29T00:55:34.413Z,0
2016-06-29T00:56:35.001Z,0
2016-06-29T00:57:35.047Z,0
2016-06-29T00:58:34.366Z,0
2016-06-29T00:59:35.589Z,0
2016-06-29T01:00:36.218Z,0
2016-06-29T01:01:36.177Z,0
2016-06-29T01:02:34.309Z,0
2016-06-29T01:03:35.576Z,0
2016-06-29T01:04:34.921Z,0
2016-06-29T01:05:34.911Z,0
2016-06-29T01:06:35.504Z,0
2016-06-29T01:07:33.681Z,0
2016-06-29T01:08:34.916Z,0
2016-06-29T01:09:33.619Z,0
2016-06-29T01:10:36.094Z,0
2016-06-29T01:11:33.596Z,0
2016-06-29T01:12:34.228Z,0
2016-06-29T01:13:34.810Z,0
2016-06-29T01:14:34.218Z,0
2016-06-29T01:15:34.781Z,0
2016-06-29T01:16:34.771Z,0
2016-06-29T01:17:34.760Z,0
2016-06-29T01:18:33.542Z,0
2016-06-29T01:19:35.354Z,0
2016-06-29T01:20:35.981Z,0
2016-06-29T01:21:34.732Z,0
2016-06-29T01:22:34.712Z,0
2016-06-29T01:23:34.745Z,0
2016-06-29T01:24:34.696Z,0
2016-06-29T01:25:34.041Z,0
2016-06-29T01:26:34.641Z,0
2016-06-29T01:27:35.877Z,0
2016-06-29T01:28:34.026Z,0
2016-06-29T01:29:35.240Z,0
2016-06-29T01:30:33.982Z,0
2016-06-29T01:31:34.581Z,0
2016-06-29T01:32:34.583Z,0
2016-06-29T01:33:33.974Z,0
2016-06-29T01:34:35.821Z,0
2016-06-29T01:35:33.923Z,0
2016-06-29T01:36:33.309Z,0
2016-06-29T01:37:34.520Z,0
2016-06-29T01:38:35.141Z,0
2016-06-29T01:39:34.514Z,0
2016-06-29T01:40:35.093Z,0
2016-06-29T01:41:34.570Z,0
2016-06-29T01:42:35.711Z,0
2016-06-29T01:43:34.460Z,0
2016-06-29T01:44:33.822Z,0
2016-06-29T01:45:33.810Z,0
2016-06-29T01:46:33.801Z,0
2016-06-29T01:47:35.013Z,0
2016-06-29T01:48:34.438Z,0
2016-06-29T01:49:33.782Z,0
2016-06-29T01:50:34.353Z,0
2016-06-29T01:51:34.333Z,0
2016-06-29T01:52:34.359Z,0
2016-06-29T01:53:34.356Z,0
2016-06-29T01:54:34.314Z,0
2016-06-29T01:55:33.701Z,0
2016-06-29T01:56:34.280Z,0
2016-06-29T01:57:35.577Z,0
2016-06-29T01:58:33.654Z,0
2016-06-29T01:59:34.862Z,0
2016-06-29T02:00:33.658Z,0
2016-06-29T02:01:34.868Z,0
2016-06-29T02:02:34.221Z,0
2016-06-29T02:03:35.519Z,0
2016-06-29T02:04:33.602Z,0
2016-06-29T02:05:33.558Z,0
2016-06-29T02:06:34.230Z,0
2016-06-29T02:07:35.425Z,0
2016-06-29T02:08:34.568Z,0
2016-06-29T02:09:34.143Z,0
2016-06-29T02:10:34.124Z,0
2016-06-29T02:11:32.911Z,0
2016-06-29T02:12:33.534Z,0
2016-06-29T02:13:34.093Z,0
2016-06-29T02:14:33.456Z,0
2016-06-29T02:15:33.467Z,0
2016-06-29T02:16:32.825Z,0
2016-06-29T02:17:35.294Z,0
2016-06-29T02:18:33.452Z,0
2016-06-29T02:19:34.612Z,0
2016-06-29T02:20:35.227Z,0
2016-06-29T02:21:34.597Z,0
2016-06-29T02:22:33.971Z,0
2016-06-29T02:23:34.585Z,0
2016-06-29T02:24:34.006Z,0
2016-06-29T02:25:34.566Z,0
2016-06-29T02:26:33.330Z,0
2016-06-29T02:27:33.907Z,0
2016-06-29T02:28:33.909Z,0
2016-06-29T02:29:33.902Z,0
2016-06-29T02:30:33.884Z,0
2016-06-29T02:31:33.885Z,0
2016-06-29T02:32:33.860Z,0
2016-06-29T02:33:35.260Z,0
2016-06-29T02:34:33.221Z,0
2016-06-29T02:35:33.823Z,0
2016-06-29T02:36:34.450Z,0
2016-06-29T02:37:33.801Z,0
2016-06-29T02:38:33.225Z,0
2016-06-29T02:39:33.169Z,0
2016-06-29T02:40:33.155Z,0
2016-06-29T02:41:33.739Z,0
2016-06-29T02:42:34.359Z,0
2016-06-29T02:43:34.962Z,0
2016-06-29T02:44:33.111Z,0
2016-06-29T02:45:33.725Z,0
2016-06-29T02:46:33.093Z,0
2016-06-29T02:47:33.681Z,0
2016-06-29T02:48:33.041Z,0
2016-06-29T02:49:33.639Z,0
2016-06-29T02:50:34.340Z,0
2016-06-29T02:51:33.678Z,0
2016-06-29T02:52:34.276Z,0
2016-06-29T02:53:33.608Z,0
2016-06-29T02:54:33.627Z,0
2016-06-29T02:55:34.197Z,0
2016-06-29T02:56:33.562Z,0
2016-06-29T02:57:32.934Z,0
2016-06-29T02:58:33.548Z,0
2016-06-29T02:59:32.299Z,0
2016-06-29T03:00:34.143Z,0
2016-06-29T03:01:34.770Z,0
2016-06-29T03:02:34.730Z,0
2016-06-29T03:03:32.889Z,0
2016-06-29T03:04:33.456Z,0
2016-06-29T03:05:34.083Z,0
2016-06-29T03:06:34.064Z,0
2016-06-29T03:07:34.731Z,0
2016-06-29T03:08:33.489Z,0
2016-06-29T03:09:34.031Z,0
2016-06-29T03:10:32.791Z,0
2016-06-29T03:11:33.384Z,0
2016-06-29T03:12:33.379Z,0
2016-06-29T03:13:32.765Z,0
2016-06-29T03:14:32.752Z,0
2016-06-29T03:15:33.959Z,0
2016-06-29T03:16:33.326Z,0
2016-06-29T03:17:32.691Z,0
2016-06-29T03:18:33.901Z,0
2016-06-29T03:19:33.292Z,0
2016-06-29T03:20:33.266Z,5
2016-06-29T03:21:32.641Z,5
2016-06-29T03:22:33.245Z,5
2016-06-29T03:23:33.254Z,5
2016-06-29T03:24:33.239Z,5
2016-06-29T03:25:31.983Z,5
2016-06-29T03:26:32.570Z,5
2016-06-29T03:27:33.803Z,5
2016-06-29T03:28:33.818Z,5
2016-06-29T03:29:33.189Z,5
2016-06-29T03:30:33.148Z,5
2016-06-29T03:31:33.746Z,10
2016-06-29T03:32:32.510Z,10
2016-06-29T03:33:33.420Z,10
2016-06-29T03:34:33.718Z,10
2016-06-29T03:35:33.703Z,10
2016-06-29T03:36:33.703Z,10
2016-06-29T03:37:34.299Z,10
2016-06-29T03:38:33.034Z,10
2016-06-29T03:39:32.422Z,10
2016-06-29T03:40:33.074Z,10
2016-06-29T03:41:32.983Z,15
2016-06-29T03:42:33.646Z,15
2016-06-29T03:43:32.983Z,15
2016-06-29T03:44:34.227Z,15
2016-06-29T03:45:32.950Z,20
2016-06-29T03:46:33.572Z,20
2016-06-29T03:47:32.328Z,25
2016-06-29T03:48:32.321Z,25
2016-06-29T03:49:33.526Z,20
2016-06-29T03:50:32.896Z,20
2016-06-29T03:51:32.908Z,20
2016-06-29T03:52:34.153Z,25
2016-06-29T03:53:32.937Z,25
2016-06-29T03:54:32.236Z,25
2016-06-29T03:55:32.839Z,30
2016-06-29T03:56:34.044Z,30
2016-06-29T03:57:32.813Z,35
2016-06-29T03:58:33.412Z,35
2016-06-29T03:59:32.187Z,35
2016-06-29T04:00:33.537Z,30
2016-06-29T04:01:32.903Z,35
2016-06-29T04:02:32.137Z,35
2016-06-29T04:03:32.738Z,35
2016-06-29T04:04:32.084Z,30
2016-06-29T04:05:32.787Z,35
2016-06-29T04:06:31.462Z,40
2016-06-29T04:07:33.298Z,40
2016-06-29T04:08:33.088Z,35
2016-06-29T04:09:33.292Z,40
2016-06-29T04:10:33.255Z,40
2016-06-29T04:11:33.249Z,45
2016-06-29T04:12:33.857Z,40
2016-06-29T04:13:32.610Z,40
2016-06-29T04:14:32.595Z,45
2016-06-29T04:15:33.784Z,40
2016-06-29T04:16:33.196Z,40
2016-06-29T04:17:33.169Z,50
2016-06-29T04:18:31.940Z,50
2016-06-29T04:19:33.133Z,50
2016-06-29T04:20:32.546Z,55
2016-06-29T04:21:33.118Z,55
2016-06-29T04:22:32.507Z,55
2016-06-29T04:23:33.082Z,55
2016-06-29T04:24:32.468Z,55
2016-06-29T04:25:31.835Z,60
2016-06-29T04:26:31.862Z,50
2016-06-29T04:27:31.846Z,45
2016-06-29T04:28:32.447Z,45
2016-06-29T04:29:32.202Z,45
2016-06-29T04:30:33.020Z,45
2016-06-29T04:31:32.997Z,50
2016-06-29T04:32:32.387Z,65
2016-06-29T04:33:33.314Z,55
2016-06-29T04:34:31.779Z,50
2016-06-29T04:35:32.370Z,50
2016-06-29T04:36:31.773Z,60
2016-06-29T04:37:32.338Z,55
2016-06-29T04:38:32.316Z,50
2016-06-29T04:39:32.878Z,55
2016-06-29T04:40:32.866Z,55
2016-06-29T04:41:31.634Z,55
2016-06-29T04:42:32.884Z,60
2016-06-29T04:43:32.844Z,45
2016-06-29T04:44:32.853Z,45
2016-06-29T04:45:31.612Z,50
2016-06-29T04:46:32.738Z,55
2016-06-29T04:47:33.442Z,55
2016-06-29T04:48:32.821Z,50
2016-06-29T04:49:32.803Z,50
2016-06-29T04:50:32.766Z,50
2016-06-29T04:51:32.149Z,55
2016-06-29T04:52:31.510Z,70
2016-06-29T04:53:32.102Z,65
2016-06-29T04:54:31.468Z,60
2016-06-29T04:55:32.714Z,70
2016-06-29T04:56:33.290Z,70
2016-06-29T04:57:32.671Z,90
2016-06-29T04:58:32.037Z,75
2016-06-29T04:59:32.094Z,70
2016-06-29T05:00:31.424Z,80
2016-06-29T05:01:31.374Z,95
2016-06-29T05:02:32.613Z,115
2016-06-29T05:03:31.377Z,140
2016-06-29T05:04:31.971Z,140
2016-06-29T05:05:31.420Z,120
2016-06-29T05:06:31.934Z,115
2016-06-29T05:07:31.326Z,85
2016-06-29T05:08:31.912Z,70
2016-06-29T05:09:32.538Z,55
2016-06-29T05:10:31.923Z,45
2016-06-29T05:11:31.890Z,35
2016-06-29T05:12:31.252Z,40
2016-06-29T05:13:31.922Z,55
2016-06-29T05:14:31.844Z,80
2016-06-29T05:15:32.444Z,100
2016-06-29T05:16:32.434Z,90
2016-06-29T05:17:32.421Z,75
2016-06-29T05:18:31.802Z,55
2016-06-29T05:19:30.558Z,55
2016-06-29T05:20:31.211Z,60
2016-06-29T05:21:31.149Z,75
2016-06-29T05:22:32.371Z,65
2016-06-29T05:23:32.338Z,70
2016-06-29T05:24:31.150Z,75
2016-06-29T05:25:31.714Z,70
2016-06-29T05:26:31.699Z,70
2016-06-29T05:27:32.292Z,85
2016-06-29T05:28:31.842Z,100
2016-06-29T05:29:31.686Z,95
2016-06-29T05:30:31.666Z,125
2016-06-29T05:31:32.277Z,115
2016-06-29T05:32:32.261Z,95
2016-06-29T05:33:30.997Z,70
2016-06-29T05:34:30.390Z,80
2016-06-29T05:35:31.581Z,70
2016-06-29T05:36:31.614Z,70
2016-06-29T05:37:30.948Z,70
2016-06-29T05:38:30.947Z,70
2016-06-29T05:39:32.151Z,70
2016-06-29T05:40:30.909Z,75
2016-06-29T05:41:32.147Z,85
2016-06-29T05:42:31.502Z,100
2016-06-29T05:43:30.945Z,110
2016-06-29T05:44:31.515Z,125
2016-06-29T05:45:32.733Z,150
2016-06-29T05:46:31.446Z,140
2016-06-29T05:47:31.456Z,105
2016-06-29T05:48:31.428Z,80
2016-06-29T05:49:31.403Z,70
2016-06-29T05:50:31.407Z,70
2016-06-29T05:51:31.996Z,95
2016-06-29T05:52:32.035Z,135
2016-06-29T05:53:31.411Z,155
2016-06-29T05:54:30.106Z,175
2016-06-29T05:55:30.116Z,165
2016-06-29T05:56:30.144Z,150
2016-06-29T05:57:31.966Z,120
2016-06-29T05:58:31.312Z,110
2016-06-29T05:59:32.533Z,100
2016-06-29T06:00:31.288Z,85
2016-06-29T06:01:32.503Z,70
2016-06-29T06:02:31.257Z,120
2016-06-29T06:03:31.263Z,130
2016-06-29T06:04:31.221Z,95
2016-06-29T06:05:31.209Z,35
2016-06-29T06:06:31.825Z,20
2016-06-29T06:07:31.814Z,20
2016-06-29T06:08:31.794Z,40
2016-06-29T06:09:32.615Z,25
2016-06-29T06:10:31.795Z,15
2016-06-29T06:11:30.551Z,15
2016-06-29T06:12:31.138Z,25
2016-06-29T06:13:31.371Z,45
2016-06-29T06:14:29.894Z,85
2016-06-29T06:15:31.718Z,95
2016-06-29T06:16:31.148Z,90
2016-06-29T06:17:30.485Z,75
2016-06-29T06:18:31.340Z,65
2016-06-29T06:19:31.682Z,55
2016-06-29T06:20:31.088Z,60
2016-06-29T06:21:31.049Z,65
2016-06-29T06:22:31.008Z,75
2016-06-29T06:23:32.230Z,80
2016-06-29T06:24:30.418Z,95
2016-06-29T06:25:31.614Z,120
2016-06-29T06:26:30.370Z,150
2016-06-29T06:27:30.346Z,165
2016-06-29T06:28:31.558Z,180
2016-06-29T06:29:31.541Z,200
2016-06-29T06:30:31.527Z,190
2016-06-29T06:31:30.295Z,185
2016-06-29T06:32:30.914Z,165
2016-06-29T06:33:30.890Z,155
2016-06-29T06:34:30.883Z,170
2016-06-29T06:35:30.844Z,180
2016-06-29T06:36:30.867Z,200
2016-06-29T06:37:30.813Z,200
2016-06-29T06:38:30.211Z,180
2016-06-29T06:39:30.195Z,165
2016-06-29T06:40:30.197Z,180
2016-06-29T06:41:31.395Z,205
2016-06-29T06:42:29.555Z,205
2016-06-29T06:43:30.749Z,205
2016-06-29T06:44:31.995Z,185
2016-06-29T06:45:30.707Z,200
2016-06-29T06:46:31.383Z,245
2016-06-29T06:47:30.687Z,275
2016-06-29T06:48:31.291Z,680
2016-06-29T06:49:31.347Z,240
2016-06-29T06:50:30.058Z,230
2016-06-29T06:51:30.708Z,215
2016-06-29T06:52:31.263Z,185
2016-06-29T06:53:30.659Z,170
2016-06-29T06:54:31.857Z,140
2016-06-29T06:55:31.854Z,125
2016-06-29T06:56:31.293Z,125
2016-06-29T06:57:30.615Z,125
2016-06-29T06:58:30.585Z,120
2016-06-29T06:59:29.353Z,105
2016-06-29T07:00:29.939Z,110
2016-06-29T07:01:30.539Z,135
2016-06-29T07:02:30.544Z,135
2016-06-29T07:03:30.521Z,130
2016-06-29T07:04:30.530Z,115
2016-06-29T07:05:29.895Z,135
2016-06-29T07:06:30.486Z,170
2016-06-29T07:07:31.194Z,165
2016-06-29T07:08:31.126Z,160
2016-06-29T07:09:29.282Z,160
2016-06-29T07:10:30.430Z,150
2016-06-29T07:11:31.074Z,115
2016-06-29T07:12:31.026Z,105
2016-06-29T07:13:31.016Z,125
2016-06-29T07:14:31.010Z,140
2016-06-29T07:15:30.385Z,110
2016-06-29T07:16:30.367Z,110
2016-06-29T07:17:31.595Z,125
2016-06-29T07:18:30.956Z,120
2016-06-29T07:19:30.331Z,110
2016-06-29T07:20:30.314Z,105
2016-06-29T07:21:30.295Z,120
2016-06-29T07:22:30.933Z,120
2016-06-29T07:23:30.305Z,90
2016-06-29T07:24:30.875Z,75
2016-06-29T07:25:30.903Z,80
2016-06-29T07:26:30.247Z,80
2016-06-29T07:27:30.242Z,90
2016-06-29T07:28:29.619Z,95
2016-06-29T07:29:30.866Z,125
2016-06-29T07:30:29.595Z,100
2016-06-29T07:31:30.172Z,85
2016-06-29T07:32:30.183Z,110
2016-06-29T07:33:30.169Z,125
2016-06-29T07:34:31.406Z,145
2016-06-29T07:35:30.740Z,180
2016-06-29T07:36:29.527Z,165
2016-06-29T07:37:30.755Z,195
2016-06-29T07:38:30.714Z,165
2016-06-29T07:39:28.866Z,130
2016-06-29T07:40:30.070Z,115
2016-06-29T07:41:29.518Z,160
2016-06-29T07:42:30.058Z,240
2016-06-29T07:43:30.653Z,280
2016-06-29T07:44:30.675Z,460
2016-06-29T07:45:31.265Z,380
2016-06-29T07:46:30.010Z,290
2016-06-29T07:47:30.003Z,295
2016-06-29T07:48:30.608Z,65
2016-06-29T07:49:29.972Z,80
2016-06-29T07:50:30.556Z,135
2016-06-29T07:51:29.967Z,175
2016-06-29T07:52:31.181Z,215
2016-06-29T07:53:30.539Z,265
2016-06-29T07:54:30.563Z,280
2016-06-29T07:55:29.950Z,360
2016-06-29T07:56:29.902Z,445
2016-06-29T07:57:30.504Z,490
2016-06-29T07:58:29.902Z,450
2016-06-29T07:59:29.839Z,265
2016-06-29T08:00:29.848Z,295
2016-06-29T08:01:30.463Z,300
2016-06-29T08:02:29.819Z,325
2016-06-29T08:03:29.181Z,480
2016-06-29T08:04:29.799Z,475
2016-06-29T08:05:29.842Z,1695
2016-06-29T08:06:29.858Z,280
2016-06-29T08:07:31.074Z,330
2016-06-29T08:08:29.787Z,1240
2016-06-29T08:09:30.005Z,1300
2016-06-29T08:10:29.751Z,1180
2016-06-29T08:11:30.934Z,1785
2016-06-29T08:12:30.307Z,870
2016-06-29T08:13:29.706Z,1685
2016-06-29T08:14:30.932Z,750
2016-06-29T08:15:29.078Z,1865
2016-06-29T08:16:29.686Z,1870
2016-06-29T08:17:29.119Z,655
2016-06-29T08:18:30.294Z,305
2016-06-29T08:19:30.870Z,405
2016-06-29T08:20:30.279Z,250
2016-06-29T08:21:28.403Z,235
2016-06-29T08:22:29.016Z,290
2016-06-29T08:23:28.384Z,350
2016-06-29T08:24:29.595Z,285
2016-06-29T08:25:29.626Z,255
2016-06-29T08:26:28.989Z,225
2016-06-29T08:27:29.589Z,240
2016-06-29T08:28:30.801Z,220
2016-06-29T08:29:29.599Z,155
2016-06-29T08:30:29.577Z,150
2016-06-29T08:31:30.789Z,180
2016-06-29T08:32:30.170Z,235
2016-06-29T08:33:28.326Z,300
2016-06-29T08:34:28.929Z,350
2016-06-29T08:35:28.919Z,365
2016-06-29T08:36:28.889Z,685
2016-06-29T08:37:28.270Z,940
2016-06-29T08:38:30.716Z,215
2016-06-29T08:39:30.148Z,175
2016-06-29T08:40:30.084Z,140
2016-06-29T08:41:30.109Z,130
2016-06-29T08:42:29.452Z,120
2016-06-29T08:43:30.067Z,130
2016-06-29T08:44:28.183Z,115
2016-06-29T08:45:29.418Z,90
2016-06-29T08:46:28.814Z,110
2016-06-29T08:47:29.414Z,170
2016-06-29T08:48:28.767Z,205
2016-06-29T08:49:30.034Z,215
2016-06-29T08:50:28.174Z,245
2016-06-29T08:51:30.606Z,1505
2016-06-29T08:52:29.347Z,385
2016-06-29T08:53:29.968Z,455
2016-06-29T08:54:28.106Z,405
2016-06-29T08:55:29.371Z,315
2016-06-29T08:56:29.297Z,360
2016-06-29T08:57:28.689Z,385
2016-06-29T08:58:28.687Z,735
2016-06-29T08:59:29.929Z,490
2016-06-29T09:00:29.895Z,415
2016-06-29T09:01:29.954Z,370
2016-06-29T09:02:29.279Z,350
2016-06-29T09:03:30.452Z,335
2016-06-29T09:04:28.009Z,255
2016-06-29T09:05:28.617Z,230
2016-06-29T09:06:28.597Z,285
2016-06-29T09:07:29.820Z,265
2016-06-29T09:08:29.810Z,205
2016-06-29T09:09:29.168Z,165
2016-06-29T09:10:29.154Z,200
2016-06-29T09:11:30.377Z,305
2016-06-29T09:12:29.157Z,455
2016-06-29T09:13:29.141Z,455
2016-06-29T09:14:28.554Z,405
2016-06-29T09:15:28.508Z,410
2016-06-29T09:16:29.737Z,385
2016-06-29T09:17:29.711Z,300
2016-06-29T09:18:29.086Z,275
2016-06-29T09:19:29.104Z,270
2016-06-29T09:20:28.463Z,310
2016-06-29T09:21:28.449Z,340
2016-06-29T09:22:29.675Z,395
2016-06-29T09:23:29.054Z,450
2016-06-29T09:24:30.264Z,855
2016-06-29T09:25:29.012Z,280
2016-06-29T09:26:29.022Z,200
2016-06-29T09:27:28.387Z,185
2016-06-29T09:28:30.342Z,210
2016-06-29T09:29:29.591Z,210
2016-06-29T09:30:28.987Z,225
2016-06-29T09:31:28.367Z,190
2016-06-29T09:32:29.581Z,145
2016-06-29T09:33:29.573Z,135
2016-06-29T09:34:29.600Z,125
2016-06-29T09:35:29.578Z,140
2016-06-29T09:36:29.542Z,150
2016-06-29T09:37:29.513Z,160
2016-06-29T09:38:30.129Z,160
2016-06-29T09:39:28.910Z,160
2016-06-29T09:40:30.129Z,170
2016-06-29T09:41:28.870Z,210
2016-06-29T09:42:28.907Z,270
2016-06-29T09:43:28.848Z,350
2016-06-29T09:44:28.817Z,370
2016-06-29T09:45:29.456Z,330
2016-06-29T09:46:29.461Z,310
2016-06-29T09:47:28.820Z,300
2016-06-29T09:48:29.602Z,275
2016-06-29T09:49:30.031Z,280
2016-06-29T09:50:30.046Z,335
2016-06-29T09:51:28.179Z,240
2016-06-29T09:52:28.181Z,245
2016-06-29T09:53:28.734Z,295
2016-06-29T09:54:29.995Z,335
2016-06-29T09:55:28.140Z,405
2016-06-29T09:56:29.313Z,415
2016-06-29T09:57:29.314Z,410
2016-06-29T09:58:28.075Z,370
2016-06-29T09:59:28.665Z,360
2016-06-29T10:00:28.933Z,390
2016-06-29T10:01:28.066Z,435
2016-06-29T10:02:28.048Z,440
2016-06-29T10:03:29.260Z,395
2016-06-29T10:04:28.029Z,455
2016-06-29T10:05:28.633Z,480
2016-06-29T10:06:28.634Z,420
2016-06-29T10:07:29.834Z,380
2016-06-29T10:08:29.222Z,370
2016-06-29T10:09:28.782Z,320
2016-06-29T10:10:27.984Z,295
2016-06-29T10:11:29.792Z,300
2016-06-29T10:12:29.777Z,380
2016-06-29T10:13:27.978Z,655
2016-06-29T10:14:28.555Z,685
2016-06-29T10:15:28.528Z,2695
2016-06-29T10:16:28.527Z,2625
2016-06-29T10:17:29.157Z,1480
2016-06-29T10:18:27.918Z,380
2016-06-29T10:19:27.272Z,255
2016-06-29T10:20:27.899Z,225
2016-06-29T10:21:27.266Z,240
2016-06-29T10:22:28.475Z,295
2016-06-29T10:23:27.850Z,375
2016-06-29T10:24:29.061Z,1540
2016-06-29T10:25:28.499Z,460
2016-06-29T10:26:29.066Z,1175
2016-06-29T10:27:27.838Z,295
2016-06-29T10:28:29.039Z,200
2016-06-29T10:29:28.408Z,210
2016-06-29T10:30:28.426Z,235
2016-06-29T10:31:28.998Z,280
2016-06-29T10:32:28.378Z,370
2016-06-29T10:33:27.777Z,1665
2016-06-29T10:34:28.378Z,895
2016-06-29T10:35:27.132Z,2350
2016-06-29T10:36:28.964Z,1990
2016-06-29T10:37:28.970Z,2015
2016-06-29T10:38:27.725Z,1655
2016-06-29T10:39:28.343Z,985
2016-06-29T10:40:28.954Z,815
2016-06-29T10:41:28.314Z,600
2016-06-29T10:42:28.450Z,475
2016-06-29T10:43:28.933Z,1610
2016-06-29T10:44:28.938Z,1750
2016-06-29T10:45:27.693Z,1990
2016-06-29T10:46:28.929Z,2015
2016-06-29T10:47:28.268Z,1495
2016-06-29T10:48:28.911Z,2095
2016-06-29T10:49:29.515Z,1740
2016-06-29T10:50:28.892Z,1760
2016-06-29T10:51:28.318Z,1600
2016-06-29T10:52:28.868Z,1625
2016-06-29T10:53:27.631Z,465
2016-06-29T10:54:28.225Z,335
2016-06-29T10:55:27.013Z,320
2016-06-29T10:56:27.620Z,370
2016-06-29T10:57:28.917Z,1215
2016-06-29T10:58:28.220Z,1965
2016-06-29T10:59:28.982Z,605
2016-06-29T11:00:28.834Z,645
2016-06-29T11:01:26.989Z,1275
2016-06-29T11:02:27.595Z,455
2016-06-29T11:03:27.575Z,950
2016-06-29T11:04:27.588Z,690
2016-06-29T11:05:26.980Z,565
2016-06-29T11:06:27.618Z,595
2016-06-29T11:07:27.575Z,415
2016-06-29T11:08:28.183Z,395
2016-06-29T11:09:28.158Z,665
2016-06-29T11:10:28.171Z,1860
2016-06-29T11:11:28.186Z,1130
2016-06-29T11:12:28.777Z,410
2016-06-29T11:13:28.175Z,415
2016-06-29T11:14:28.788Z,520
2016-06-29T11:15:28.166Z,650
2016-06-29T11:16:28.769Z,1110
2016-06-29T11:17:28.772Z,1455
2016-06-29T11:18:28.740Z,765
2016-06-29T11:19:27.501Z,740
2016-06-29T11:20:28.097Z,1705
2016-06-29T11:21:28.089Z,1415
2016-06-29T11:22:28.100Z,640
2016-06-29T11:23:27.452Z,320
2016-06-29T11:24:28.686Z,320
2016-06-29T11:25:27.486Z,270
2016-06-29T11:26:28.708Z,280
2016-06-29T11:27:28.703Z,370
2016-06-29T11:28:28.039Z,275
2016-06-29T11:29:27.459Z,315
2016-06-29T11:30:28.069Z,735
2016-06-29T11:31:28.679Z,610
2016-06-29T11:32:28.035Z,705
2016-06-29T11:33:28.043Z,1185
2016-06-29T11:34:28.642Z,1675
2016-06-29T11:35:27.404Z,685
2016-06-29T11:36:28.029Z,630
2016-06-29T11:37:28.011Z,470
2016-06-29T11:38:28.626Z,345
2016-06-29T11:39:27.422Z,305
2016-06-29T11:40:26.789Z,300
2016-06-29T11:41:27.957Z,260
2016-06-29T11:42:27.964Z,215
2016-06-29T11:43:27.997Z,170
2016-06-29T11:44:29.167Z,135
2016-06-29T11:45:27.947Z,130
2016-06-29T11:46:27.937Z,180
2016-06-29T11:47:28.572Z,265
2016-06-29T11:48:27.932Z,585
2016-06-29T11:49:28.546Z,440
2016-06-29T11:50:29.143Z,1220
2016-06-29T11:51:27.268Z,715
2016-06-29T11:52:27.277Z,525
2016-06-29T11:53:27.915Z,305
2016-06-29T11:54:27.267Z,255
2016-06-29T11:55:27.250Z,270
2016-06-29T11:56:28.489Z,310
2016-06-29T11:57:28.515Z,405
2016-06-29T11:58:28.466Z,965
2016-06-29T11:59:27.866Z,590
2016-06-29T12:00:27.857Z,1170
2016-06-29T12:01:28.524Z,785
2016-06-29T12:02:28.441Z,720
2016-06-29T12:03:27.812Z,330
2016-06-29T12:04:27.193Z,300
2016-06-29T12:05:27.818Z,230
2016-06-29T12:06:28.394Z,215
2016-06-29T12:07:27.174Z,245
2016-06-29T12:08:27.783Z,360
2016-06-29T12:09:28.012Z,445
2016-06-29T12:10:27.746Z,500
2016-06-29T12:11:27.158Z,390
2016-06-29T12:12:27.756Z,615
2016-06-29T12:13:28.360Z,2250
2016-06-29T12:14:28.338Z,2420
2016-06-29T12:15:28.316Z,2475
2016-06-29T12:16:27.707Z,1065
2016-06-29T12:17:27.722Z,685
2016-06-29T12:18:26.491Z,420
2016-06-29T12:19:27.102Z,445
2016-06-29T12:20:27.711Z,2050
2016-06-29T12:21:28.895Z,2150
2016-06-29T12:22:27.670Z,2075
2016-06-29T12:23:28.307Z,2105
2016-06-29T12:24:28.300Z,1880
2016-06-29T12:25:27.649Z,1615
2016-06-29T12:26:28.894Z,440
2016-06-29T12:27:27.044Z,2225
2016-06-29T12:28:27.655Z,2050
2016-06-29T12:29:27.655Z,2510
2016-06-29T12:30:27.635Z,2295
2016-06-29T12:31:27.644Z,590
2016-06-29T12:32:27.003Z,500
2016-06-29T12:33:27.646Z,525
2016-06-29T12:34:27.055Z,1800
2016-06-29T12:35:27.006Z,1930
2016-06-29T12:36:27.598Z,1810
2016-06-29T12:37:27.586Z,445
2016-06-29T12:38:26.377Z,2230
2016-06-29T12:39:28.201Z,2260
2016-06-29T12:40:26.973Z,2180
2016-06-29T12:41:28.827Z,2155
2016-06-29T12:42:27.633Z,2155
2016-06-29T12:43:27.632Z,2190
2016-06-29T12:44:27.615Z,2195
2016-06-29T12:45:27.591Z,2185
2016-06-29T12:46:27.602Z,2195
2016-06-29T12:47:28.195Z,2145
2016-06-29T12:48:27.586Z,2140
2016-06-29T12:49:26.948Z,2140
2016-06-29T12:50:28.177Z,445
2016-06-29T12:51:28.216Z,2005
2016-06-29T12:52:26.358Z,1920
2016-06-29T12:53:28.178Z,1925
2016-06-29T12:54:28.191Z,1910
2016-06-29T12:55:26.935Z,1880
2016-06-29T12:56:28.773Z,1960
2016-06-29T12:57:28.184Z,2065
2016-06-29T12:58:28.813Z,2220
2016-06-29T12:59:26.946Z,2220
2016-06-29T13:00:27.586Z,2175
2016-06-29T13:01:27.547Z,2000
2016-06-29T13:02:27.570Z,2110
2016-06-29T13:03:28.201Z,2070
2016-06-29T13:04:27.566Z,2070
2016-06-29T13:05:27.556Z,1995
2016-06-29T13:06:26.967Z,1985
2016-06-29T13:07:26.369Z,1900
2016-06-29T13:08:27.574Z,2080
2016-06-29T13:09:26.941Z,2030
2016-06-29T13:10:27.558Z,1775
2016-06-29T13:11:27.599Z,1875
2016-06-29T13:12:28.194Z,1970
2016-06-29T13:13:27.604Z,2100
2016-06-29T13:14:27.585Z,1610
2016-06-29T13:15:27.574Z,2165
2016-06-29T13:16:26.960Z,2220
2016-06-29T13:17:26.350Z,2155
2016-06-29T13:18:27.580Z,2180
2016-06-29T13:19:27.576Z,2185
2016-06-29T13:20:28.184Z,2185
2016-06-29T13:21:28.223Z,2250
2016-06-29T13:22:27.549Z,2200
2016-06-29T13:23:27.575Z,2155
2016-06-29T13:24:27.577Z,1875
2016-06-29T13:25:27.559Z,2080
2016-06-29T13:26:27.561Z,1965
2016-06-29T13:27:27.568Z,2010
2016-06-29T13:28:27.558Z,2105
2016-06-29T13:29:28.185Z,2145
2016-06-29T13:30:28.186Z,2215
2016-06-29T13:31:28.206Z,300
2016-06-29T13:32:26.961Z,315
2016-06-29T13:33:28.825Z,410
2016-06-29T13:34:26.979Z,2005
2016-06-29T13:35:28.816Z,2080
2016-06-29T13:36:28.817Z,2060
2016-06-29T13:37:26.339Z,2015
2016-06-29T13:38:28.191Z,1995
2016-06-29T13:39:28.210Z,2105
2016-06-29T13:40:27.577Z,2075
2016-06-29T13:41:26.987Z,2200
2016-06-29T13:42:26.973Z,545
2016-06-29T13:43:28.227Z,610
2016-06-29T13:44:27.598Z,650
2016-06-29T13:45:27.616Z,1370
2016-06-29T13:46:27.586Z,455
2016-06-29T13:47:28.875Z,530
2016-06-29T13:48:27.575Z,480
2016-06-29T13:49:27.583Z,2010
2016-06-29T13:50:28.221Z,1975
2016-06-29T13:51:26.986Z,2000
2016-06-29T13:52:27.588Z,1880
2016-06-29T13:53:27.596Z,1825
2016-06-29T13:54:28.186Z,360
2016-06-29T13:55:28.226Z,325
2016-06-29T13:56:28.182Z,305
2016-06-29T13:57:27.567Z,305
2016-06-29T13:58:28.211Z,1000
2016-06-29T13:59:27.801Z,355
2016-06-29T14:00:26.949Z,610
2016-06-29T14:01:27.578Z,740